Time;durP1;ratioP1;P1;durP2;ratioP2;P2;SDS_P1;SDS_P2;PMS_P1;PMS_P2;Temp;Humidity;BMP_temperature;BMP_pressure;BME280_temperature;BME280_humidity;BME280_pressure;Samples;Min_cycle;Max_cycle;Signal;HPM_P1;HPM_P2
2023/10/16 00:00:47;;;;;;;3.17;0.28;;;8.00;68.60;;;;;;5087965;28;20934;-71
2023/10/16 00:03:13;;;;;;;4.80;0.50;;;7.90;68.90;;;;;;5088554;28;20791;-71
2023/10/16 00:05:49;;;;;;;4.18;0.30;;;7.90;68.70;;;;;;5088109;28;20416;-71
2023/10/16 00:08:16;;;;;;;3.15;0.30;;;7.80;68.50;;;;;;5087842;28;20487;-71
2023/10/16 00:10:55;;;;;;;2.30;0.30;;;7.80;68.80;;;;;;5087167;28;20832;-71
2023/10/16 00:13:26;;;;;;;3.97;0.30;;;7.80;69.20;;;;;;5088792;28;20503;-71
2023/10/16 00:15:57;;;;;;;5.28;0.30;;;7.70;69.50;;;;;;5088819;28;20406;-71
2023/10/16 00:18:24;;;;;;;3.22;0.40;;;7.70;69.50;;;;;;5084493;28;20500;-71
2023/10/16 00:20:56;;;;;;;4.68;0.30;;;7.70;70.00;;;;;;5086140;28;20424;-71
2023/10/16 00:23:30;;;;;;;3.60;0.40;;;7.70;70.40;;;;;;5093054;28;20683;-71
2023/10/16 00:25:56;;;;;;;4.30;0.30;;;7.70;71.30;;;;;;5088177;28;20555;-71
2023/10/16 00:28:22;;;;;;;3.28;0.30;;;7.70;71.80;;;;;;5087375;28;20571;-71
2023/10/16 00:30:49;;;;;;;6.47;0.40;;;7.80;71.80;;;;;;5096511;28;20484;-70
2023/10/16 00:33:16;;;;;;;4.88;0.50;;;7.70;71.10;;;;;;5087264;28;20417;-71
2023/10/16 00:35:45;;;;;;;3.85;0.40;;;7.80;71.90;;;;;;5093214;28;20418;-71
2023/10/16 00:38:13;;;;;;;3.33;0.50;;;7.80;72.30;;;;;;5085902;28;20417;-71
2023/10/16 00:40:51;;;;;;;5.33;0.30;;;7.80;73.60;;;;;;5087429;28;20455;-71
2023/10/16 00:43:22;;;;;;;2.25;0.20;;;7.90;73.50;;;;;;5081661;28;20768;-71
2023/10/16 00:46:00;;;;;;;2.95;0.20;;;7.90;73.60;;;;;;5087159;28;20438;-71
2023/10/16 00:48:27;;;;;;;3.63;0.40;;;7.90;73.90;;;;;;5068701;28;20440;-70
2023/10/16 00:50:54;;;;;;;3.20;0.30;;;7.90;74.50;;;;;;5086549;28;20421;-70
2023/10/16 00:53:23;;;;;;;4.50;0.40;;;7.90;74.70;;;;;;5086947;28;20817;-70
2023/10/16 00:55:49;;;;;;;4.05;0.52;;;7.90;75.00;;;;;;5087680;28;20414;-70
2023/10/16 00:58:16;;;;;;;4.75;0.50;;;7.90;75.30;;;;;;5087946;28;20409;-71
2023/10/16 01:00:45;;;;;;;5.88;0.60;;;7.90;75.80;;;;;;5091349;28;20410;-71
2023/10/16 01:03:12;;;;;;;4.53;0.88;;;8.00;76.30;;;;;;5090585;28;20775;-71
2023/10/16 01:05:42;;;;;;;3.60;0.57;;;8.00;76.30;;;;;;5095301;28;20418;-71
2023/10/16 01:08:10;;;;;;;4.70;0.73;;;8.00;76.10;;;;;;5084894;28;20832;-71
2023/10/16 01:10:47;;;;;;;6.15;1.00;;;8.10;76.00;;;;;;5091282;28;20410;-71
2023/10/16 01:13:13;;;;;;;5.32;0.85;;;8.10;76.30;;;;;;5091035;28;20404;-71
2023/10/16 01:15:50;;;;;;;6.33;1.00;;;8.10;76.60;;;;;;5090995;28;20405;-71
2023/10/16 01:18:17;;;;;;;3.23;0.90;;;8.10;76.60;;;;;;5093561;28;20400;-71
2023/10/16 01:20:50;;;;;;;4.68;0.77;;;8.10;77.30;;;;;;5089652;28;20443;-71
2023/10/16 01:23:19;;;;;;;4.25;1.10;;;8.20;77.40;;;;;;5091189;28;20398;-71
2023/10/16 01:25:48;;;;;;;5.57;1.27;;;8.20;77.00;;;;;;5095145;28;20974;-71
2023/10/16 01:28:15;;;;;;;5.87;1.10;;;8.20;77.30;;;;;;5093681;28;21014;-71
2023/10/16 01:30:42;;;;;;;4.97;1.02;;;8.20;77.20;;;;;;5089724;28;20460;-71
2023/10/16 01:33:08;;;;;;;5.07;1.15;;;8.20;77.70;;;;;;5092194;28;20413;-71
2023/10/16 01:35:37;;;;;;;5.20;1.02;;;8.20;76.10;;;;;;5090746;28;20416;-71
2023/10/16 01:38:14;;;;;;;5.45;0.95;;;8.20;76.80;;;;;;5090048;28;20568;-71
2023/10/16 01:40:47;;;;;;;5.22;1.10;;;8.20;77.80;;;;;;5089680;28;20413;-71
2023/10/16 01:43:13;;;;;;;5.65;1.05;;;8.20;78.20;;;;;;5089607;28;21019;-71
2023/10/16 01:45:49;;;;;;;6.10;1.50;;;8.20;77.70;;;;;;5094040;28;20404;-71
2023/10/16 01:48:20;;;;;;;4.82;1.00;;;8.20;78.70;;;;;;5090652;28;20685;-71
2023/10/16 01:50:48;;;;;;;6.07;1.02;;;8.20;79.20;;;;;;5091740;28;20421;-71
2023/10/16 01:53:15;;;;;;;5.75;1.00;;;8.20;79.20;;;;;;5101019;28;20413;-71
2023/10/16 01:55:51;;;;;;;3.13;0.97;;;8.10;78.80;;;;;;5090451;28;20424;-71
2023/10/16 01:58:17;;;;;;;4.63;1.05;;;8.10;78.60;;;;;;5090377;28;20410;-71
2023/10/16 02:00:43;;;;;;;4.22;0.90;;;8.00;78.30;;;;;;5090500;28;20405;-71
2023/10/16 02:03:09;;;;;;;6.90;1.08;;;8.00;78.50;;;;;;5097552;28;20919;-71
2023/10/16 02:05:35;;;;;;;6.20;0.90;;;7.90;78.60;;;;;;5089978;28;20405;-71
2023/10/16 02:08:00;;;;;;;3.05;1.00;;;7.90;78.40;;;;;;5089356;28;20438;-72
2023/10/16 02:10:26;;;;;;;5.17;0.90;;;7.90;78.90;;;;;;5088566;28;20405;-72
2023/10/16 02:12:52;;;;;;;4.85;0.85;;;7.90;79.50;;;;;;5090442;28;20906;-71
2023/10/16 02:15:21;;;;;;;4.57;0.82;;;7.90;80.20;;;;;;5075812;28;20417;-71
2023/10/16 02:17:49;;;;;;;5.30;0.77;;;8.00;80.60;;;;;;5089866;28;20780;-71
2023/10/16 02:20:17;;;;;;;5.10;0.90;;;8.00;80.40;;;;;;5089003;28;20418;-71
2023/10/16 02:22:43;;;;;;;5.70;1.00;;;8.00;80.40;;;;;;5089501;28;20608;-71
2023/10/16 02:25:09;;;;;;;4.20;1.15;;;8.00;79.70;;;;;;5089195;28;20413;-71
2023/10/16 02:27:35;;;;;;;4.97;1.50;;;7.90;79.70;;;;;;5088833;28;20418;-71
2023/10/16 02:30:28;;;;;;;6.97;1.55;;;7.90;79.90;;;;;;5089410;28;20406;-71
2023/10/16 02:32:59;;;;;;;6.25;1.10;;;7.90;80.30;;;;;;5088490;28;20413;-71
2023/10/16 02:35:25;;;;;;;5.90;1.10;;;7.90;80.50;;;;;;5087583;28;20770;-71
2023/10/16 02:37:57;;;;;;;4.13;0.93;;;7.90;79.40;;;;;;5087894;28;21389;-71
2023/10/16 02:40:26;;;;;;;3.80;1.00;;;7.80;79.00;;;;;;5089261;28;20410;-71
2023/10/16 02:42:56;;;;;;;3.60;0.75;;;7.80;79.80;;;;;;5089056;28;20477;-71
2023/10/16 02:45:27;;;;;;;5.10;0.70;;;7.70;79.70;;;;;;5097509;28;20481;-71
2023/10/16 02:47:53;;;;;;;4.28;0.93;;;7.70;79.90;;;;;;5088829;28;21361;-71
2023/10/16 02:50:20;;;;;;;6.40;1.00;;;7.60;80.20;;;;;;5095793;28;20927;-71
2023/10/16 02:52:47;;;;;;;6.68;1.08;;;7.60;80.70;;;;;;5089889;28;20421;-71
2023/10/16 02:55:14;;;;;;;3.97;0.70;;;7.70;80.60;;;;;;5089038;28;20493;-71
2023/10/16 02:57:40;;;;;;;3.70;0.93;;;7.60;80.40;;;;;;5089135;28;20454;-71
2023/10/16 03:00:49;;;;;;;4.15;0.75;;;7.60;80.70;;;;;;5093802;28;20413;-71
2023/10/16 03:03:05;;;;;;;5.57;1.33;;;7.60;80.90;;;;;;5077043;28;20410;-71
2023/10/16 03:05:31;;;;;;;5.85;1.08;;;7.60;81.00;;;;;;5089710;28;20438;-72
2023/10/16 03:07:57;;;;;;;7.60;1.50;;;7.50;80.50;;;;;;5089605;28;20437;-71
2023/10/16 03:10:22;;;;;;;4.07;0.93;;;7.50;80.50;;;;;;5088734;28;20414;-71
2023/10/16 03:12:52;;;;;;;5.35;0.93;;;7.50;80.90;;;;;;5089444;28;20408;-71
2023/10/16 03:15:28;;;;;;;5.35;1.08;;;7.40;81.50;;;;;;5089209;28;20425;-71
2023/10/16 03:17:54;;;;;;;3.97;1.02;;;7.50;82.00;;;;;;5089513;28;20496;-71
2023/10/16 03:20:35;;;;;;;5.73;1.17;;;7.60;82.20;;;;;;5094104;28;20489;-70
2023/10/16 03:23:07;;;;;;;6.53;1.40;;;7.60;82.90;;;;;;5088877;28;20481;-71
2023/10/16 03:28:13;;;;;;;4.65;1.40;;;7.60;83.00;;;;;;5088624;28;20437;-71
2023/10/16 03:30:42;;;;;;;6.47;1.27;;;7.70;82.90;;;;;;5090085;28;20445;-70
2023/10/16 03:33:08;;;;;;;6.07;1.20;;;7.60;82.70;;;;;;5087510;28;20488;-70
2023/10/16 03:35:34;;;;;;;5.18;1.08;;;7.60;82.40;;;;;;5080785;28;20486;-70
2023/10/16 03:38:10;;;;;;;4.35;1.00;;;7.60;82.20;;;;;;5095439;28;20410;-71
2023/10/16 03:40:36;;;;;;;7.40;1.20;;;7.60;82.40;;;;;;5103511;28;20443;-70
2023/10/16 03:43:01;;;;;;;4.00;1.13;;;7.50;82.40;;;;;;5088117;28;20457;-71
2023/10/16 03:45:28;;;;;;;5.20;0.93;;;7.50;82.30;;;;;;5096009;28;20929;-70
2023/10/16 03:47:57;;;;;;;6.57;1.20;;;7.50;82.50;;;;;;5088338;28;20518;-70
2023/10/16 03:50:26;;;;;;;7.03;1.50;;;7.50;82.50;;;;;;5087159;28;20406;-70
2023/10/16 03:52:54;;;;;;;5.20;0.90;;;7.50;82.50;;;;;;5087999;28;20459;-71
2023/10/16 03:55:27;;;;;;;5.32;1.30;;;7.40;82.70;;;;;;5097808;28;20507;-70
2023/10/16 03:57:55;;;;;;;5.53;1.15;;;7.40;82.80;;;;;;5075109;28;20422;-71
2023/10/16 04:00:41;;;;;;;4.97;0.90;;;7.40;82.80;;;;;;5088598;28;20409;-71
2023/10/16 04:03:09;;;;;;;7.45;1.42;;;7.40;83.10;;;;;;5079326;28;20405;-70
2023/10/16 04:05:46;;;;;;;5.13;1.10;;;7.30;82.70;;;;;;5096013;28;20446;-70
2023/10/16 04:08:23;;;;;;;5.70;1.27;;;7.30;82.60;;;;;;5087032;28;20525;-70
2023/10/16 04:10:53;;;;;;;6.32;1.33;;;7.30;83.40;;;;;;5087230;28;20500;-70
2023/10/16 04:13:23;;;;;;;5.70;1.00;;;7.30;84.00;;;;;;5086607;28;20418;-70
2023/10/16 04:18:33;;;;;;;4.40;0.90;;;7.40;84.00;;;;;;5086594;28;20837;-71
2023/10/16 04:26:32;;;;;;;5.57;0.90;;;7.50;85.00;;;;;;5090453;28;20943;-71
2023/10/16 04:31:44;;;;;;;6.00;0.70;;;7.50;85.00;;;;;;5087581;28;20852;-71
2023/10/16 04:36:54;;;;;;;4.95;0.82;;;7.40;84.80;;;;;;5091210;28;20434;-70
2023/10/16 04:47:41;;;;;;;5.32;1.10;;;7.50;85.50;;;;;;5087045;28;20444;-71
2023/10/16 04:50:11;;;;;;;7.43;1.27;;;7.60;85.90;;;;;;5087915;28;20463;-71
2023/10/16 04:53:06;;;;;;;7.72;1.30;;;7.60;86.20;;;;;;5089189;28;20464;-71
2023/10/16 05:01:17;;;;;;;6.40;1.48;;;7.70;86.50;;;;;;5087125;28;20436;-70
2023/10/16 05:06:14;;;;;;;7.28;1.48;;;7.80;86.90;;;;;;5087921;28;20485;-70
2023/10/16 05:13:17;;;;;;;5.60;1.33;;;7.90;86.70;;;;;;5088031;28;20433;-71
2023/10/16 05:15:20;;;;;;;4.40;1.00;;;8.00;86.90;;;;;;5085401;28;20502;-70
2023/10/16 05:19:53;;;;;;;7.20;1.00;;;8.00;87.00;;;;;;5089377;28;20425;-70
2023/10/16 06:14:21;;;;;;;6.30;1.20;;;8.30;88.60;;;;;;5094692;28;20993;-68
2023/10/16 06:16:53;;;;;;;6.88;1.17;;;8.30;88.60;;;;;;5090931;27;20418;-69
2023/10/16 06:19:19;;;;;;;6.90;1.02;;;8.30;88.30;;;;;;5085305;28;20508;-70
2023/10/16 06:21:52;;;;;;;7.73;1.33;;;8.30;88.10;;;;;;5093110;28;20437;-70
2023/10/16 06:24:35;;;;;;;7.22;1.10;;;8.30;88.30;;;;;;5089013;28;20450;-70
2023/10/16 06:27:09;;;;;;;7.03;1.00;;;8.30;89.00;;;;;;5094764;28;20499;-70
2023/10/16 06:29:50;;;;;;;6.82;1.20;;;8.30;89.40;;;;;;5089888;28;20834;-71
2023/10/16 06:32:25;;;;;;;7.82;1.60;;;8.40;89.60;;;;;;5089437;28;20414;-70
2023/10/16 06:35:02;;;;;;;7.82;1.30;;;8.30;89.70;;;;;;5091732;27;20429;-70
2023/10/16 06:37:31;;;;;;;9.38;1.27;;;8.40;89.80;;;;;;5090480;28;20408;-70
2023/10/16 06:40:16;;;;;;;6.25;1.60;;;8.40;89.90;;;;;;5099350;28;20411;-70
2023/10/16 06:42:47;;;;;;;8.02;1.75;;;8.50;89.90;;;;;;5085486;28;20492;-70
2023/10/16 06:45:22;;;;;;;6.38;1.10;;;8.50;90.00;;;;;;5085240;28;20413;-71
2023/10/16 06:47:48;;;;;;;9.02;1.33;;;8.50;90.00;;;;;;5088591;28;20426;-70
2023/10/16 06:52:53;;;;;;;7.70;1.33;;;8.60;90.00;;;;;;5092606;28;22066;-71
2023/10/16 06:55:23;;;;;;;7.35;1.60;;;8.60;90.20;;;;;;5091479;28;20497;-71
2023/10/16 06:57:49;;;;;;;8.82;1.70;;;8.60;90.00;;;;;;5120828;27;20767;-71
2023/10/16 07:00:49;;;;;;;7.80;1.65;;;8.60;90.00;;;;;;5089461;28;20409;-71
2023/10/16 07:03:12;;;;;;;32.35;11.65;;;8.60;90.00;;;;;;5107650;27;20426;-71
2023/10/16 07:05:45;;;;;;;6.95;1.77;;;8.70;90.10;;;;;;5098529;28;20441;-71
2023/10/16 07:08:19;;;;;;;9.25;1.60;;;8.70;90.10;;;;;;5088556;28;20422;-71
2023/10/16 07:10:50;;;;;;;8.55;1.73;;;8.70;90.10;;;;;;5088070;28;20416;-71
2023/10/16 07:13:26;;;;;;;7.15;1.60;;;8.70;90.10;;;;;;5079967;28;20415;-71
2023/10/16 07:15:56;;;;;;;10.02;1.33;;;8.80;90.20;;;;;;5089401;28;20409;-71
2023/10/16 07:18:24;;;;;;;8.85;1.20;;;8.80;90.30;;;;;;5089390;28;20416;-71
2023/10/16 07:23:34;;;;;;;6.45;1.20;;;8.80;90.20;;;;;;5088584;28;20416;-71
2023/10/16 07:26:02;;;;;;;7.63;1.40;;;8.90;90.30;;;;;;5090895;28;20423;-71
2023/10/16 07:28:29;;;;;;;6.13;1.20;;;8.90;90.30;;;;;;5079719;28;20495;-71
2023/10/16 07:30:59;;;;;;;8.70;1.23;;;8.90;90.30;;;;;;5089164;28;20417;-71
2023/10/16 07:33:26;;;;;;;7.82;1.30;;;9.00;90.40;;;;;;5085650;28;20945;-71
2023/10/16 07:35:54;;;;;;;9.10;1.48;;;9.00;90.50;;;;;;5086980;28;20501;-71
2023/10/16 07:38:22;;;;;;;6.43;1.33;;;9.00;90.50;;;;;;5088088;28;20410;-71
2023/10/16 07:40:51;;;;;;;7.38;1.13;;;9.10;90.50;;;;;;5096692;28;20424;-71
2023/10/16 07:43:27;;;;;;;7.97;1.55;;;9.10;90.50;;;;;;5088907;28;20414;-70
2023/10/16 07:48:40;;;;;;;7.22;1.20;;;9.20;90.90;;;;;;5088621;28;20549;-70
2023/10/16 07:51:07;;;;;;;8.10;1.00;;;9.30;90.90;;;;;;5087433;28;21299;-70
2023/10/16 07:53:37;;;;;;;6.57;0.90;;;9.40;90.90;;;;;;5090160;28;20406;-69
2023/10/16 07:56:17;;;;;;;8.57;1.50;;;9.50;90.80;;;;;;5094228;28;20414;-70
2023/10/16 07:58:48;;;;;;;6.30;1.00;;;9.60;90.80;;;;;;5086965;28;20414;-70
2023/10/16 08:01:20;;;;;;;5.70;0.70;;;9.60;90.40;;;;;;5089385;28;20413;-70
2023/10/16 08:03:56;;;;;;;6.85;1.17;;;9.60;89.20;;;;;;5087985;28;20410;-70
2023/10/16 08:06:24;;;;;;;5.63;1.00;;;9.60;88.50;;;;;;5088169;28;20432;-70
2023/10/16 08:08:50;;;;;;;6.90;1.00;;;9.70;88.40;;;;;;5087066;28;20434;-69
2023/10/16 08:11:20;;;;;;;7.00;1.17;;;9.70;88.00;;;;;;5092945;28;20408;-69
2023/10/16 08:13:51;;;;;;;5.25;0.70;;;9.70;87.40;;;;;;5088670;28;20504;-69
2023/10/16 08:16:18;;;;;;;4.40;0.60;;;9.80;87.40;;;;;;5088503;28;20414;-69
2023/10/16 08:18:51;;;;;;;6.25;0.95;;;9.80;86.50;;;;;;5098245;28;20427;-69
2023/10/16 08:21:24;;;;;;;5.72;0.80;;;9.90;86.20;;;;;;5113218;27;20422;-69
2023/10/16 08:23:54;;;;;;;4.53;0.55;;;9.90;85.60;;;;;;5087425;28;20470;-69
2023/10/16 08:26:29;;;;;;;6.60;0.50;;;9.90;84.50;;;;;;5088872;28;20921;-69
2023/10/16 08:34:35;;;;;;;4.60;0.60;;;10.10;81.00;;;;;;5087224;28;20822;-69
2023/10/16 08:37:03;;;;;;;4.93;0.60;;;10.10;80.00;;;;;;5088168;28;20467;-69
2023/10/16 08:39:36;;;;;;;5.07;0.70;;;10.20;79.00;;;;;;5103562;28;20497;-69
2023/10/16 08:42:11;;;;;;;3.35;0.60;;;10.20;78.80;;;;;;5078365;28;20414;-69
2023/10/16 08:44:38;;;;;;;4.47;0.50;;;10.30;78.90;;;;;;5096910;28;20842;-70
2023/10/16 08:49:31;;;;;;;3.97;0.60;;;10.40;77.20;;;;;;5087278;28;20426;-70
2023/10/16 08:52:04;;;;;;;3.35;0.50;;;10.40;76.60;;;;;;5090089;28;20494;-69
2023/10/16 08:55:00;;;;;;;4.30;0.47;;;10.40;76.00;;;;;;5099384;28;20866;-69
2023/10/16 08:57:25;;;;;;;3.25;0.32;;;10.40;75.40;;;;;;5088697;28;20973;-70
2023/10/16 08:59:51;;;;;;;5.22;0.60;;;10.40;75.80;;;;;;5086627;28;20753;-69
2023/10/16 09:02:20;;;;;;;5.50;0.57;;;10.50;77.20;;;;;;5087740;28;20410;-70
2023/10/16 09:04:48;;;;;;;5.25;0.68;;;10.60;81.90;;;;;;5088018;28;20405;-69
2023/10/16 09:07:17;;;;;;;6.00;1.00;;;10.90;88.60;;;;;;5086790;28;20421;-70
2023/10/16 09:09:53;;;;;;;5.90;0.63;;;11.50;85.00;;;;;;5089079;28;20472;-70
2023/10/16 09:12:26;;;;;;;5.43;0.60;;;11.60;73.90;;;;;;5090743;28;20475;-70
2023/10/16 09:15:09;;;;;;;3.58;0.50;;;11.60;70.70;;;;;;5082311;28;20402;-70
2023/10/16 09:17:35;;;;;;;4.80;0.70;;;11.80;77.00;;;;;;5077760;28;20404;-70
2023/10/16 09:20:13;;;;;;;4.87;0.50;;;12.20;73.80;;;;;;5086949;28;20463;-70
2023/10/16 09:22:45;;;;;;;3.33;0.60;;;12.60;75.40;;;;;;5082973;28;20413;-70
2023/10/16 09:25:15;;;;;;;5.13;0.68;;;13.20;68.70;;;;;;5090359;28;20417;-70
2023/10/16 09:27:45;;;;;;;6.43;0.70;;;13.70;66.50;;;;;;5105653;27;20491;-71
2023/10/16 09:30:17;;;;;;;3.50;0.80;;;14.20;50.60;;;;;;5088197;28;20963;-71
2023/10/16 09:32:43;;;;;;;4.78;0.68;;;14.40;45.30;;;;;;5090207;28;20911;-70
2023/10/16 09:35:12;;;;;;;3.97;0.60;;;14.40;34.00;;;;;;5090989;28;20409;-71
2023/10/16 09:37:41;;;;;;;4.20;0.80;;;14.30;32.90;;;;;;5092851;28;20429;-70
2023/10/16 09:40:19;;;;;;;2.93;0.47;;;14.40;36.50;;;;;;5091075;28;20398;-70
2023/10/16 09:42:55;;;;;;;4.82;0.60;;;14.50;33.10;;;;;;5089613;28;20919;-70
2023/10/16 09:45:23;;;;;;;8.68;0.85;;;14.90;39.80;;;;;;5094020;28;20760;-71
2023/10/16 09:47:55;;;;;;;3.10;0.40;;;15.80;37.50;;;;;;5071409;28;20406;-71
2023/10/16 09:50:24;;;;;;;4.53;0.47;;;16.50;26.20;;;;;;5094518;28;20408;-71
2023/10/16 09:52:49;;;;;;;2.75;0.40;;;17.30;18.60;;;;;;5089253;28;20485;-71
2023/10/16 09:55:18;;;;;;;3.40;0.37;;;18.00;6.10;;;;;;5093132;28;20575;-71
2023/10/16 09:57:52;;;;;;;3.03;0.40;;;18.30;1.00;;;;;;5098724;28;20950;-71
2023/10/16 10:00:29;;;;;;;4.35;0.60;;;18.00;1.00;;;;;;5089279;28;20409;-71
2023/10/16 10:03:11;;;;;;;4.72;0.60;;;17.50;1.00;;;;;;5090941;28;20414;-71
2023/10/16 10:05:49;;;;;;;5.65;0.80;;;16.90;1.00;;;;;;5073572;28;20490;-71
2023/10/16 10:08:27;;;;;;;4.97;0.70;;;16.40;1.00;;;;;;5095002;28;20434;-71
2023/10/16 10:11:17;;;;;;;5.50;0.60;;;16.30;1.00;;;;;;5076442;28;20410;-71
2023/10/16 10:13:55;;;;;;;8.45;0.82;;;16.70;1.00;;;;;;5090805;28;20416;-71
2023/10/16 10:16:23;;;;;;;5.80;0.90;;;17.40;1.00;;;;;;5093655;28;20422;-71
2023/10/16 10:19:01;;;;;;;4.95;0.70;;;17.30;1.00;;;;;;5089389;28;20406;-72
2023/10/16 10:21:34;;;;;;;4.05;0.60;;;17.00;1.00;;;;;;5086384;28;21019;-72
2023/10/16 10:24:03;;;;;;;5.45;0.47;;;16.70;1.00;;;;;;5087442;28;20409;-71
2023/10/16 10:26:32;;;;;;;4.03;0.67;;;16.10;1.00;;;;;;5088555;28;20833;-72
2023/10/16 10:29:11;;;;;;;2.47;0.47;;;15.40;1.00;;;;;;5120402;27;20450;-71
2023/10/16 10:31:41;;;;;;;2.97;0.40;;;14.80;1.00;;;;;;5082137;28;20423;-71
2023/10/16 10:34:18;;;;;;;4.70;0.40;;;14.30;1.00;;;;;;5089835;28;20934;-71
2023/10/16 10:36:44;;;;;;;3.85;0.40;;;13.90;1.00;;;;;;5084321;28;20480;-71
2023/10/16 10:39:22;;;;;;;4.15;0.70;;;13.70;1.00;;;;;;5081703;28;20495;-71
2023/10/16 10:41:54;;;;;;;2.70;0.43;;;13.90;3.80;;;;;;5085492;28;20422;-71
2023/10/16 10:44:29;;;;;;;3.13;0.28;;;14.80;11.60;;;;;;5085379;28;20406;-72
2023/10/16 10:46:55;;;;;;;3.33;0.60;;;15.70;1.90;;;;;;5082356;28;20776;-72
2023/10/16 10:49:34;;;;;;;3.65;0.50;;;16.30;1.00;;;;;;5087894;28;20432;-72
2023/10/16 10:52:01;;;;;;;2.78;0.40;;;16.30;1.00;;;;;;5086124;28;20410;-71
2023/10/16 10:54:27;;;;;;;2.92;0.38;;;16.20;1.00;;;;;;5083805;28;20918;-72
2023/10/16 10:56:59;;;;;;;2.90;0.38;;;16.20;1.00;;;;;;5082802;28;20485;-72
2023/10/16 10:59:47;;;;;;;2.67;0.30;;;16.60;1.00;;;;;;5087359;28;20401;-72
2023/10/16 11:04:47;;;;;;;4.27;0.50;;;17.40;1.00;;;;;;5090071;28;20398;-72
2023/10/16 11:07:23;;;;;;;3.65;0.40;;;17.60;1.00;;;;;;5090509;28;20903;-72
2023/10/16 11:09:51;;;;;;;3.00;0.32;;;17.80;1.00;;;;;;5072389;28;20429;-72
2023/10/16 11:12:16;;;;;;;2.38;0.47;;;18.30;1.00;;;;;;5086544;28;20528;-72
2023/10/16 11:14:42;;;;;;;2.73;0.40;;;18.80;1.00;;;;;;5080331;28;20489;-72
2023/10/16 11:17:08;;;;;;;3.15;0.50;;;19.20;1.00;;;;;;5089495;28;20412;-73
2023/10/16 11:19:49;;;;;;;3.63;0.50;;;19.30;1.00;;;;;;5090538;28;20788;-72
2023/10/16 11:22:21;;;;;;;3.53;0.60;;;19.40;1.00;;;;;;5103560;28;20422;-73
2023/10/16 11:24:48;;;;;;;3.95;0.65;;;19.60;1.00;;;;;;5095030;28;20412;-73
2023/10/16 11:27:14;;;;;;;6.22;0.60;;;19.90;99.90;;;;;;5088292;28;20563;-72
2023/10/16 11:29:45;;;;;;;2.80;0.47;;;20.30;1.00;;;;;;5089624;28;20484;-72
2023/10/16 11:32:16;;;;;;;3.72;0.52;;;20.80;99.90;;;;;;5088605;28;20416;-73
2023/10/16 11:34:46;;;;;;;4.68;0.60;;;21.20;99.90;;;;;;5090954;28;20438;-73
2023/10/16 11:37:14;;;;;;;4.90;0.75;;;21.30;99.90;;;;;;5088927;28;20402;-73
2023/10/16 11:39:44;;;;;;;4.20;0.60;;;21.10;99.90;;;;;;5088555;28;20410;-72
2023/10/16 11:42:13;;;;;;;7.32;1.17;;;21.10;99.90;;;;;;5087403;28;20455;-72
2023/10/16 11:44:40;;;;;;;4.90;0.60;;;20.90;99.90;;;;;;5088674;28;20410;-72
2023/10/16 11:47:16;;;;;;;7.53;0.73;;;20.60;99.90;;;;;;5087527;28;20946;-72
2023/10/16 11:49:53;;;;;;;4.25;0.60;;;20.40;99.90;;;;;;5092033;28;20980;-72
2023/10/16 11:52:20;;;;;;;3.90;0.47;;;20.00;99.90;;;;;;5088408;28;20953;-72
2023/10/16 11:54:48;;;;;;;5.15;0.60;;;19.30;99.90;;;;;;5088840;28;20784;-72
2023/10/16 11:57:14;;;;;;;3.08;0.38;;;18.50;99.90;;;;;;5088481;28;20406;-72
2023/10/16 11:59:40;;;;;;;4.70;0.40;;;17.80;99.90;;;;;;5087546;28;20515;-72
2023/10/16 12:02:18;;;;;;;4.68;0.57;;;17.20;1.00;;;;;;5069430;28;20421;-72
2023/10/16 12:04:44;;;;;;;4.35;0.70;;;16.60;1.00;;;;;;5083005;28;20405;-72
2023/10/16 12:07:13;;;;;;;4.55;0.60;;;16.10;1.00;;;;;;5088555;28;20480;-72
2023/10/16 12:09:48;;;;;;;3.03;0.60;;;15.70;1.00;;;;;;5086077;28;20626;-72
2023/10/16 12:12:20;;;;;;;3.42;0.40;;;15.40;1.00;;;;;;5091373;27;20927;-72
2023/10/16 12:14:50;;;;;;;5.07;0.50;;;15.20;1.00;;;;;;5088541;28;20441;-72
2023/10/16 12:17:19;;;;;;;4.50;0.50;;;15.00;1.00;;;;;;5089555;28;20406;-72
2023/10/16 12:19:46;;;;;;;3.70;0.60;;;15.00;1.00;;;;;;5088257;28;20413;-72
2023/10/16 12:22:15;;;;;;;3.80;0.57;;;15.00;1.00;;;;;;5086905;28;20408;-72
2023/10/16 12:24:43;;;;;;;2.58;0.35;;;15.20;1.00;;;;;;5088301;28;20412;-72
2023/10/16 12:27:09;;;;;;;4.00;0.40;;;15.60;1.00;;;;;;5094646;28;20402;-72
2023/10/16 12:29:35;;;;;;;3.90;0.50;;;15.80;1.00;;;;;;5087804;28;20425;-71
2023/10/16 12:32:03;;;;;;;4.80;0.88;;;16.00;1.00;;;;;;5087961;28;21025;-73
2023/10/16 12:34:32;;;;;;;3.40;0.40;;;16.10;1.00;;;;;;5088204;28;20402;-72
2023/10/16 12:37:00;;;;;;;4.22;0.60;;;16.20;1.00;;;;;;5072561;28;20785;-72
2023/10/16 12:39:30;;;;;;;6.20;0.80;;;16.20;1.00;;;;;;5083470;28;20883;-72
2023/10/16 12:41:57;;;;;;;5.37;0.60;;;16.20;1.00;;;;;;5088252;28;20410;-72
2023/10/16 12:44:26;;;;;;;2.63;0.70;;;16.00;1.00;;;;;;5087505;28;20493;-73
2023/10/16 12:46:56;;;;;;;3.63;0.47;;;15.80;1.00;;;;;;5091171;28;20402;-72
2023/10/16 12:49:21;;;;;;;3.92;0.50;;;15.80;1.00;;;;;;5083600;28;20514;-72
2023/10/16 12:51:49;;;;;;;3.67;0.60;;;15.80;1.00;;;;;;5078735;28;20501;-71
2023/10/16 12:54:15;;;;;;;2.63;0.60;;;15.80;1.00;;;;;;5085425;28;20410;-72
2023/10/16 12:56:43;;;;;;;3.38;0.50;;;15.80;1.00;;;;;;5097191;28;20408;-72
2023/10/16 12:59:09;;;;;;;3.97;0.45;;;15.80;1.00;;;;;;5096296;28;20462;-72
2023/10/16 13:01:38;;;;;;;3.40;0.50;;;15.80;1.00;;;;;;5088044;28;20903;-72
2023/10/16 13:04:06;;;;;;;4.03;0.40;;;15.90;1.00;;;;;;5087729;28;20888;-72
2023/10/16 13:06:32;;;;;;;5.37;0.70;;;16.00;1.00;;;;;;5087287;28;20410;-72
2023/10/16 13:09:03;;;;;;;4.75;0.70;;;16.10;1.00;;;;;;5095113;28;20514;-68
2023/10/16 13:11:28;;;;;;;3.88;0.70;;;16.10;1.00;;;;;;5087532;28;20398;-71
2023/10/16 13:13:55;;;;;;;2.90;0.50;;;16.20;1.00;;;;;;5089956;28;20409;-72
2023/10/16 13:16:26;;;;;;;3.30;0.32;;;16.30;1.00;;;;;;5087657;28;20394;-72
2023/10/16 13:18:57;;;;;;;4.22;0.73;;;16.30;1.00;;;;;;5083969;28;20409;-73
2023/10/16 13:21:32;;;;;;;5.07;0.77;;;16.10;1.00;;;;;;5082276;28;20406;-74
2023/10/16 13:24:06;;;;;;;3.58;0.57;;;15.90;1.00;;;;;;5086782;28;20481;-74
2023/10/16 13:26:35;;;;;;;4.60;0.70;;;15.70;1.00;;;;;;5085753;28;20907;-73
2023/10/16 13:29:07;;;;;;;4.97;0.70;;;15.50;1.00;;;;;;5083395;28;20435;-73
2023/10/16 13:31:56;;;;;;;2.27;0.50;;;15.40;1.00;;;;;;5086674;28;20471;-73
2023/10/16 13:34:21;;;;;;;5.05;0.50;;;15.20;1.00;;;;;;5082738;28;20814;-73
2023/10/16 13:37:00;;;;;;;3.27;0.40;;;15.00;1.00;;;;;;5069788;28;20417;-72
2023/10/16 13:39:26;;;;;;;4.73;0.40;;;14.90;1.00;;;;;;5087507;28;20402;-71
2023/10/16 13:41:53;;;;;;;4.17;0.40;;;14.80;1.00;;;;;;5087525;28;20753;-71
2023/10/16 13:44:20;;;;;;;5.75;0.70;;;14.70;1.00;;;;;;5087209;28;20822;-72
2023/10/16 13:46:53;;;;;;;4.28;0.50;;;14.50;1.00;;;;;;5059276;28;21003;-72
2023/10/16 13:49:18;;;;;;;4.10;0.90;;;14.30;1.00;;;;;;5086560;28;20422;-72
2023/10/16 13:51:45;;;;;;;5.30;0.60;;;14.10;1.00;;;;;;5087728;28;20435;-72
2023/10/16 13:54:14;;;;;;;4.70;0.67;;;13.90;1.00;;;;;;5091224;28;20405;-72
2023/10/16 13:56:47;;;;;;;3.58;0.55;;;13.70;1.00;;;;;;5087197;28;20418;-72
2023/10/16 13:59:13;;;;;;;3.67;0.55;;;13.60;1.00;;;;;;5087360;28;20434;-72
2023/10/16 14:01:46;;;;;;;3.05;0.50;;;13.50;1.00;;;;;;5085993;28;20802;-72
2023/10/16 14:04:16;;;;;;;2.70;0.40;;;13.40;1.00;;;;;;5087603;28;20409;-72
2023/10/16 14:06:55;;;;;;;4.13;0.70;;;13.40;1.00;;;;;;5090656;28;20500;-72
2023/10/16 14:09:32;;;;;;;5.97;1.00;;;13.50;1.00;;;;;;5078544;28;20761;-72
2023/10/16 14:11:59;;;;;;;2.35;0.60;;;13.50;1.00;;;;;;5090172;28;20416;-71
2023/10/16 14:14:27;;;;;;;6.25;0.60;;;13.60;1.00;;;;;;5080793;28;20521;-72
2023/10/16 14:17:02;;;;;;;5.28;0.60;;;13.50;1.00;;;;;;5090529;28;20759;-72
2023/10/16 14:19:29;;;;;;;3.10;0.40;;;13.60;1.00;;;;;;5082066;28;20399;-72
2023/10/16 14:21:56;;;;;;;4.03;0.50;;;13.70;1.00;;;;;;5088454;28;20405;-72
2023/10/16 14:24:24;;;;;;;2.63;0.63;;;13.70;1.00;;;;;;5090587;28;20398;-72
2023/10/16 14:26:57;;;;;;;3.95;0.63;;;13.70;1.00;;;;;;5090229;28;20406;-72
2023/10/16 14:29:27;;;;;;;3.65;0.50;;;13.70;1.00;;;;;;5090563;28;20524;-72
2023/10/16 14:31:57;;;;;;;3.78;0.50;;;13.80;1.00;;;;;;5092487;28;20460;-73
2023/10/16 14:34:25;;;;;;;4.38;0.75;;;13.80;1.00;;;;;;5096406;27;20772;-72
2023/10/16 14:36:52;;;;;;;6.00;0.57;;;13.90;1.00;;;;;;5091078;28;20826;-72
2023/10/16 14:39:19;;;;;;;4.77;0.43;;;13.90;1.00;;;;;;5086888;28;20418;-72
2023/10/16 14:41:45;;;;;;;5.22;0.63;;;13.90;1.00;;;;;;5083674;28;20865;-72
2023/10/16 14:44:12;;;;;;;3.35;0.50;;;13.90;1.00;;;;;;5076601;28;20485;-72
2023/10/16 14:46:39;;;;;;;5.60;0.50;;;14.00;1.00;;;;;;5088250;28;20405;-72
2023/10/16 14:49:09;;;;;;;6.10;0.68;;;14.00;1.00;;;;;;5079840;28;20479;-72
2023/10/16 14:51:37;;;;;;;4.78;0.70;;;14.00;1.00;;;;;;5088993;28;20401;-72
2023/10/16 14:54:07;;;;;;;3.85;0.65;;;14.00;1.00;;;;;;5093495;28;20926;-72
2023/10/16 14:56:39;;;;;;;4.97;0.60;;;14.00;1.00;;;;;;5089597;28;20810;-72
2023/10/16 14:59:09;;;;;;;4.60;0.70;;;14.00;1.00;;;;;;5089586;28;20405;-72
2023/10/16 15:01:36;;;;;;;4.50;0.63;;;14.00;1.00;;;;;;5089617;28;20403;-72